createdAt,value
2023-04-21T00:02:58.261Z,98052.22
2023-04-21T00:06:01.952Z,98057.31
2023-04-21T00:09:05.738Z,98060.91
2023-04-21T00:12:08.574Z,98061.56
2023-04-21T00:15:11.539Z,98049.06
2023-04-21T00:18:14.244Z,98053.56
2023-04-21T00:21:17.997Z,98058.59
2023-04-21T00:24:21.052Z,98049.44
2023-04-21T00:27:23.790Z,98051.69
2023-04-21T00:30:26.939Z,98056.13
2023-04-21T00:33:30.190Z,98064.09
2023-04-21T00:36:32.924Z,98057.84
2023-04-21T00:39:35.889Z,98054.88
2023-04-21T00:42:38.566Z,98054.44
2023-04-21T00:45:41.560Z,98053.50
2023-04-21T00:48:44.419Z,98053.22
2023-04-21T00:51:47.508Z,98046.75
2023-04-21T00:54:51.779Z,98043.91
2023-04-21T00:57:56.171Z,98042.38
2023-04-21T01:01:05.881Z,98047.81
2023-04-21T01:04:19.889Z,98040.91
2023-04-21T01:07:23.601Z,98041.66
2023-04-21T01:10:26.705Z,98039.31
2023-04-21T01:13:29.632Z,98033.00
2023-04-21T01:16:33.990Z,98042.16
2023-04-21T01:19:40.770Z,98041.53
2023-04-21T01:22:45.197Z,98045.84
2023-04-21T01:25:47.893Z,98036.34
2023-04-21T01:28:50.777Z,98037.00
2023-04-21T01:31:53.524Z,98038.44
2023-04-21T01:34:57.325Z,98039.75
2023-04-21T01:38:00.005Z,98034.75
2023-04-21T01:41:04.060Z,98032.38
2023-04-21T01:44:06.818Z,98028.16
2023-04-21T01:47:09.462Z,98028.03
2023-04-21T01:50:12.201Z,98024.06
2023-04-21T01:53:17.181Z,98032.31
2023-04-21T01:56:19.902Z,98024.34
2023-04-21T01:59:22.581Z,98022.22
2023-04-21T02:02:25.580Z,98028.63
2023-04-21T02:05:28.391Z,98030.22
2023-04-21T02:08:31.958Z,98031.09
2023-04-21T02:11:37.999Z,98030.53
2023-04-21T02:14:41.000Z,98037.19
2023-04-21T02:17:45.356Z,98024.75
2023-04-21T02:20:48.106Z,98025.03
2023-04-21T02:23:51.654Z,98025.09
2023-04-21T02:26:54.389Z,98026.03
2023-04-21T02:29:56.985Z,98025.22
2023-04-21T02:32:59.887Z,98031.16
2023-04-21T02:36:02.777Z,98033.06
2023-04-21T02:39:05.682Z,98031.41
2023-04-21T02:42:08.396Z,98029.06
2023-04-21T02:45:12.280Z,98035.84
2023-04-21T02:48:15.232Z,98036.13
2023-04-21T02:51:18.036Z,98038.72
2023-04-21T02:54:20.811Z,98027.84
2023-04-21T02:57:24.060Z,98027.56
2023-04-21T03:00:27.169Z,98032.53
2023-04-21T03:03:30.719Z,98031.97
2023-04-21T03:06:34.329Z,98030.63
2023-04-21T03:09:36.988Z,98034.72
2023-04-21T03:12:39.862Z,98038.59
2023-04-21T03:15:42.576Z,98036.50
2023-04-21T03:18:46.714Z,98034.44
2023-04-21T03:21:49.372Z,98036.66
2023-04-21T03:24:52.169Z,98036.50
2023-04-21T03:27:55.390Z,98036.38
2023-04-21T03:30:58.015Z,98036.13
2023-04-21T03:34:02.198Z,98044.38
2023-04-21T03:37:05.635Z,98038.28
2023-04-21T03:40:11.818Z,98048.47
2023-04-21T03:43:14.663Z,98051.91
2023-04-21T03:46:23.395Z,98051.22
2023-04-21T03:49:26.188Z,98049.19
2023-04-21T03:52:28.938Z,98052.75
2023-04-21T03:55:31.757Z,98043.66
2023-04-21T03:58:34.886Z,98050.94
2023-04-21T04:01:37.827Z,98053.69
2023-04-21T04:04:41.014Z,98057.28
2023-04-21T04:07:43.861Z,98058.09
2023-04-21T04:10:46.703Z,98057.00
2023-04-21T04:13:49.374Z,98055.91
2023-04-21T04:16:52.110Z,98055.19
2023-04-21T04:19:55.043Z,98060.28
2023-04-21T04:22:58.019Z,98058.72
2023-04-21T04:26:02.101Z,98067.66
2023-04-21T04:29:06.508Z,98059.13
2023-04-21T04:32:11.429Z,98061.44
2023-04-21T04:35:14.861Z,98062.66
2023-04-21T04:38:17.601Z,98065.69
2023-04-21T04:41:21.295Z,98067.84
2023-04-21T04:44:26.180Z,98065.63
2023-04-21T04:47:29.495Z,98061.25
2023-04-21T04:50:32.226Z,98066.28
2023-04-21T04:53:34.996Z,98068.53
2023-04-21T04:56:38.192Z,98073.22
2023-04-21T04:59:41.016Z,98078.16
2023-04-21T05:02:43.858Z,98077.34
2023-04-21T05:05:46.919Z,98088.81
2023-04-21T05:08:49.921Z,98085.25
2023-04-21T05:11:52.773Z,98089.16
2023-04-21T05:14:55.529Z,98090.91
2023-04-21T05:17:58.566Z,98083.59
2023-04-21T05:21:01.668Z,98085.75
2023-04-21T05:24:04.585Z,98081.38
2023-04-21T05:27:07.801Z,98078.41
2023-04-21T05:30:11.139Z,98083.88
2023-04-21T05:33:13.928Z,98075.44
2023-04-21T05:36:16.824Z,98077.88
2023-04-21T05:39:19.678Z,98082.75
2023-04-21T05:42:24.340Z,98081.09
2023-04-21T05:45:27.100Z,98087.56
2023-04-21T05:48:30.050Z,98084.59
2023-04-21T05:51:33.035Z,98084.53
2023-04-21T05:54:35.720Z,98089.25
2023-04-21T05:57:38.470Z,98087.97
2023-04-21T06:00:41.330Z,98088.63
2023-04-21T06:03:44.397Z,98079.63
2023-04-21T06:06:47.176Z,98085.44
2023-04-21T06:09:52.963Z,98081.59
2023-04-21T06:12:55.789Z,98083.31
2023-04-21T06:15:58.616Z,98082.28
2023-04-21T06:19:01.754Z,98077.50
2023-04-21T06:22:04.663Z,98072.53
2023-04-21T06:25:07.739Z,98068.84
2023-04-21T06:28:10.742Z,98072.63
2023-04-21T06:31:16.034Z,98065.97
2023-04-21T06:34:20.595Z,98075.19
2023-04-21T06:37:23.835Z,98066.78
2023-04-21T06:40:26.939Z,98067.56
2023-04-21T06:43:29.663Z,98060.69
2023-04-21T06:46:32.633Z,98055.22
2023-04-21T06:49:37.566Z,98055.25
2023-04-21T06:52:40.642Z,98052.38
2023-04-21T06:55:43.380Z,98059.00
2023-04-21T06:58:47.412Z,98057.75
2023-04-21T07:01:52.615Z,98056.47
2023-04-21T07:04:55.740Z,98054.56
2023-04-21T07:08:00.308Z,98054.72
2023-04-21T07:11:03.503Z,98065.72
2023-04-21T07:14:06.963Z,98065.56
2023-04-21T07:17:09.710Z,98066.31
2023-04-21T07:20:12.763Z,98063.97
2023-04-21T07:23:15.760Z,98073.03
2023-04-21T07:26:18.817Z,98066.53
2023-04-21T07:29:21.778Z,98061.59
2023-04-21T07:32:25.936Z,98063.25
2023-04-21T07:35:28.719Z,98070.22
2023-04-21T07:38:31.720Z,98061.59
2023-04-21T07:41:34.606Z,98066.44
2023-04-21T07:44:37.880Z,98066.84
2023-04-21T07:47:40.664Z,98069.22
2023-04-21T07:50:43.560Z,98065.81
2023-04-21T07:53:46.625Z,98066.88
2023-04-21T07:56:49.469Z,98066.47
2023-04-21T07:59:52.437Z,98063.19
2023-04-21T08:02:55.256Z,98074.88
2023-04-21T08:05:58.490Z,98068.09
2023-04-21T08:09:01.715Z,98063.22
2023-04-21T08:12:04.895Z,98070.16
2023-04-21T08:15:08.864Z,98059.91
2023-04-21T08:18:11.883Z,98065.66
2023-04-21T08:21:15.353Z,98064.03
2023-04-21T08:24:18.940Z,98061.78
2023-04-21T08:27:24.864Z,98059.94
2023-04-21T08:30:28.803Z,98055.94
2023-04-21T08:33:31.589Z,98062.59
2023-04-21T08:36:34.789Z,98058.44
2023-04-21T08:39:37.618Z,98063.00
2023-04-21T08:42:40.608Z,98047.38
2023-04-21T08:45:44.420Z,98046.34
2023-04-21T08:48:48.073Z,98039.75
2023-04-21T08:51:51.225Z,98041.47
2023-04-21T08:54:55.938Z,98040.00
2023-04-21T08:57:58.694Z,98034.13
2023-04-21T09:01:01.607Z,98037.41
2023-04-21T09:04:18.036Z,98029.19
2023-04-21T09:07:47.318Z,98019.78
2023-04-21T09:10:52.452Z,98017.25
2023-04-21T09:13:58.555Z,98020.16
2023-04-21T09:17:04.886Z,98013.41
2023-04-21T09:20:14.905Z,98018.75
2023-04-21T09:23:18.096Z,98026.88
2023-04-21T09:26:25.027Z,98024.47
2023-04-21T09:29:28.441Z,98018.34
2023-04-21T09:32:40.908Z,98016.03
2023-04-21T09:35:43.933Z,98008.81
2023-04-21T09:42:11.532Z,98003.31
2023-04-21T09:45:36.695Z,98011.78
2023-04-21T09:48:44.899Z,98009.13
2023-04-21T09:54:58.312Z,97991.66
2023-04-21T09:58:01.826Z,97993.97
2023-04-21T10:01:05.045Z,97990.34
2023-04-21T10:04:08.179Z,97997.25
2023-04-21T10:07:12.119Z,97996.47
2023-04-21T10:10:24.588Z,97992.19
2023-04-21T10:13:27.704Z,97981.16
2023-04-21T10:16:30.627Z,97984.97
2023-04-21T10:19:44.163Z,97977.16
2023-04-21T10:22:57.911Z,97974.63
2023-04-21T10:26:24.825Z,97971.16
2023-04-21T10:29:44.157Z,97973.75
2023-04-21T10:33:03.704Z,97973.50
2023-04-21T10:36:07.772Z,97975.16
2023-04-21T10:39:13.294Z,97982.09
2023-04-21T10:42:15.970Z,97968.44
2023-04-21T10:45:18.984Z,97963.75
2023-04-21T10:48:23.015Z,97969.88
2023-04-21T10:51:25.734Z,97964.34
2023-04-21T10:54:53.127Z,97967.22
2023-04-21T10:57:56.292Z,97966.19
2023-04-21T11:00:59.470Z,97958.78
2023-04-21T11:04:02.581Z,97949.72
2023-04-21T11:07:05.971Z,97947.06
2023-04-21T11:10:12.024Z,97955.50
2023-04-21T11:13:17.498Z,97948.69
2023-04-21T11:16:21.036Z,97951.44
2023-04-21T11:19:25.533Z,97953.25
2023-04-21T11:22:28.557Z,97949.00
2023-04-21T11:25:31.604Z,97943.19
2023-04-21T11:28:34.358Z,97943.69
2023-04-21T11:31:38.698Z,97938.41
2023-04-21T11:34:42.097Z,97939.47
2023-04-21T11:37:44.897Z,97933.13
2023-04-21T11:40:51.544Z,97932.88
2023-04-21T11:43:54.430Z,97939.59
2023-04-21T11:46:57.033Z,97925.34
2023-04-21T11:50:02.046Z,97923.88
2023-04-21T11:53:04.789Z,97939.03
2023-04-21T11:56:07.769Z,97934.66
2023-04-21T11:59:16.001Z,97924.69
2023-04-21T12:02:27.007Z,97920.00
2023-04-21T12:05:36.866Z,97915.16
2023-04-21T12:08:41.275Z,97910.69
2023-04-21T12:11:48.401Z,97912.72
2023-04-21T12:14:52.665Z,97911.25
2023-04-21T12:17:57.358Z,97914.44
2023-04-21T12:21:02.172Z,97904.44
2023-04-21T12:24:05.593Z,97905.03
2023-04-21T12:27:14.284Z,97895.47
2023-04-21T12:30:17.597Z,97901.34
2023-04-21T12:33:20.483Z,97890.22
2023-04-21T12:36:23.631Z,97883.00
2023-04-21T12:39:26.554Z,97890.16
2023-04-21T12:42:29.272Z,97887.84
2023-04-21T12:45:33.098Z,97879.94
2023-04-21T12:48:36.040Z,97882.38
2023-04-21T12:51:38.743Z,97875.91
2023-04-21T12:54:42.235Z,97873.50
2023-04-21T12:57:45.304Z,97870.72
2023-04-21T13:00:48.047Z,97861.09
2023-04-21T13:03:50.998Z,97857.03
2023-04-21T13:06:53.901Z,97859.72
2023-04-21T13:09:56.908Z,97859.97
2023-04-21T13:13:00.127Z,97862.94
2023-04-21T13:16:03.067Z,97852.13
2023-04-21T13:19:05.942Z,97850.84
2023-04-21T13:22:08.824Z,97847.44
2023-04-21T13:25:12.049Z,97854.41
2023-04-21T13:28:15.057Z,97849.13
2023-04-21T13:31:17.884Z,97843.28
2023-04-21T13:34:20.649Z,97837.31
2023-04-21T13:37:23.609Z,97834.06
2023-04-21T13:40:26.553Z,97837.78
2023-04-21T13:43:29.417Z,97836.00
2023-04-21T13:46:32.384Z,97831.84
2023-04-21T13:49:35.823Z,97827.47
2023-04-21T13:52:38.663Z,97820.28
2023-04-21T13:55:42.229Z,97822.69
2023-04-21T13:58:45.273Z,97814.81
2023-04-21T14:01:48.581Z,97818.41
2023-04-21T14:04:53.016Z,97820.22
2023-04-21T14:07:56.226Z,97816.59
2023-04-21T14:10:59.219Z,97807.72
2023-04-21T14:14:09.688Z,97811.59
2023-04-21T14:17:13.149Z,97805.38
2023-04-21T14:20:15.925Z,97804.38
2023-04-21T14:23:18.874Z,97800.09
2023-04-21T14:26:21.843Z,97795.44
2023-04-21T14:29:24.636Z,97801.06
2023-04-21T14:32:28.000Z,97793.13
2023-04-21T14:35:30.872Z,97791.06
2023-04-21T14:38:34.233Z,97787.63
2023-04-21T14:41:36.956Z,97792.50
2023-04-21T14:44:39.819Z,97778.81
2023-04-21T14:47:43.205Z,97776.34
2023-04-21T14:50:46.017Z,97777.13
2023-04-21T14:53:51.702Z,97770.13
2023-04-21T14:57:10.373Z,97764.72
2023-04-21T15:00:20.077Z,97764.75
2023-04-21T15:03:23.077Z,97759.84
2023-04-21T15:06:28.520Z,97765.59
2023-04-21T15:09:34.202Z,97765.22
2023-04-21T15:12:37.763Z,97765.09
2023-04-21T15:15:41.467Z,97756.25
2023-04-21T15:18:44.162Z,97766.09
2023-04-21T15:21:49.217Z,97760.00
2023-04-21T15:24:54.374Z,97762.63
2023-04-21T15:27:57.430Z,97754.06
2023-04-21T15:31:00.283Z,97762.03
2023-04-21T15:34:05.594Z,97752.84
2023-04-21T15:37:08.438Z,97753.50
2023-04-21T15:40:11.396Z,97755.91
2023-04-21T15:43:14.204Z,97751.22
2023-04-21T15:46:16.976Z,97752.22
2023-04-21T15:49:20.028Z,97749.34
2023-04-21T15:52:22.787Z,97749.38
2023-04-21T15:55:28.041Z,97748.34
2023-04-21T15:58:31.222Z,97746.97
2023-04-21T16:01:34.558Z,97754.94
2023-04-21T16:04:40.841Z,97744.50
2023-04-21T16:07:44.499Z,97746.53
2023-04-21T16:10:47.349Z,97744.72
2023-04-21T16:13:50.158Z,97738.38
2023-04-21T16:16:53.114Z,97739.13
2023-04-21T16:19:56.070Z,97729.94
2023-04-21T16:22:59.557Z,97732.78
2023-04-21T16:26:02.728Z,97731.16
2023-04-21T16:29:05.774Z,97730.75
2023-04-21T16:32:08.729Z,97733.19
2023-04-21T16:35:11.879Z,97733.38
2023-04-21T16:38:15.141Z,97735.41
2023-04-21T16:41:20.835Z,97728.06
2023-04-21T16:44:24.045Z,97725.41
2023-04-21T16:47:27.211Z,97724.72
2023-04-21T16:50:30.268Z,97720.63
2023-04-21T16:53:38.811Z,97725.69
2023-04-21T16:56:45.396Z,97717.25
2023-04-21T16:59:48.437Z,97715.72
2023-04-21T17:02:51.460Z,97705.50
2023-04-21T17:05:54.851Z,97714.81
2023-04-21T17:09:00.130Z,97714.78
2023-04-21T17:12:04.018Z,97712.81
2023-04-21T17:15:07.875Z,97712.34
2023-04-21T17:18:11.098Z,97723.47
2023-04-21T17:21:14.077Z,97724.25
2023-04-21T17:24:17.241Z,97716.19
2023-04-21T17:27:20.240Z,97713.44
2023-04-21T17:30:23.823Z,97715.56
2023-04-21T17:33:26.604Z,97721.84
2023-04-21T17:36:29.819Z,97719.81
2023-04-21T17:39:33.311Z,97716.19
2023-04-21T17:42:36.446Z,97719.88
2023-04-21T17:45:39.460Z,97724.22
2023-04-21T17:48:42.654Z,97717.47
2023-04-21T17:51:45.475Z,97720.78
2023-04-21T17:54:48.345Z,97720.59
2023-04-21T17:57:51.071Z,97720.31
2023-04-21T18:00:54.110Z,97728.25
2023-04-21T18:04:00.599Z,97735.44
2023-04-21T18:07:03.926Z,97735.28
2023-04-21T18:10:08.065Z,97738.28
2023-04-21T18:13:10.897Z,97742.69
2023-04-21T18:16:14.412Z,97736.81
2023-04-21T18:19:18.790Z,97741.75
2023-04-21T18:22:24.078Z,97735.09
2023-04-21T18:25:40.802Z,97745.47
2023-04-21T18:28:44.832Z,97743.59
2023-04-21T18:31:47.856Z,97745.59
2023-04-21T18:34:50.800Z,97748.81
2023-04-21T18:37:53.784Z,97748.06
2023-04-21T18:40:56.787Z,97748.06
2023-04-21T18:43:59.465Z,97757.63
2023-04-21T18:47:02.353Z,97752.78
2023-04-21T18:50:05.715Z,97763.19
2023-04-21T18:53:09.307Z,97764.38
2023-04-21T18:56:12.415Z,97766.09
2023-04-21T18:59:15.103Z,97763.59
2023-04-21T19:02:18.150Z,97768.19
2023-04-21T19:05:20.918Z,97771.63
2023-04-21T19:08:34.187Z,97773.59
2023-04-21T19:11:44.069Z,97773.94
2023-04-21T19:14:47.813Z,97777.13
2023-04-21T19:17:51.046Z,97776.09
2023-04-21T19:20:53.756Z,97778.44
2023-04-21T19:23:58.088Z,97774.66
2023-04-21T19:27:05.844Z,97780.34
2023-04-21T19:30:09.486Z,97782.53
2023-04-21T19:33:12.583Z,97787.84
2023-04-21T19:36:15.464Z,97785.03
2023-04-21T19:39:20.323Z,97781.97
2023-04-21T19:42:25.704Z,97788.31
2023-04-21T19:45:28.663Z,97788.16
2023-04-21T19:48:31.750Z,97791.13
2023-04-21T19:51:34.741Z,97785.06
2023-04-21T19:54:37.869Z,97784.72
2023-04-21T19:57:40.867Z,97787.22
2023-04-21T20:00:44.008Z,97795.00
2023-04-21T20:03:48.113Z,97794.56
2023-04-21T20:06:51.209Z,97796.41
2023-04-21T20:09:54.186Z,97794.78
2023-04-21T20:12:57.126Z,97798.09
2023-04-21T20:16:00.146Z,97803.03
2023-04-21T20:19:04.817Z,97811.25
2023-04-21T20:22:08.462Z,97803.19
2023-04-21T20:25:11.200Z,97807.31
2023-04-21T20:28:14.207Z,97808.31
2023-04-21T20:31:19.298Z,97805.34
2023-04-21T20:34:22.343Z,97803.88
2023-04-21T20:37:25.508Z,97804.84
2023-04-21T20:40:28.348Z,97805.59
2023-04-21T20:43:34.599Z,97808.22
2023-04-21T20:46:37.605Z,97804.75
2023-04-21T20:49:40.770Z,97805.56
2023-04-21T20:52:43.776Z,97807.56
2023-04-21T20:55:47.454Z,97802.25
2023-04-21T20:58:50.456Z,97807.84
2023-04-21T21:01:53.483Z,97806.84
2023-04-21T21:04:56.851Z,97810.13
2023-04-21T21:07:59.827Z,97803.06
2023-04-21T21:11:02.649Z,97809.63
2023-04-21T21:14:05.541Z,97816.47
2023-04-21T21:17:08.720Z,97810.22
2023-04-21T21:20:11.932Z,97808.78
2023-04-21T21:23:14.660Z,97806.28
2023-04-21T21:26:17.526Z,97808.66
2023-04-21T21:29:20.765Z,97808.66
2023-04-21T21:32:23.722Z,97811.84
2023-04-21T21:35:26.610Z,97808.22
2023-04-21T21:38:29.478Z,97814.97
2023-04-21T21:41:32.476Z,97814.47
2023-04-21T21:44:36.723Z,97810.13
2023-04-21T21:47:42.945Z,97806.50
2023-04-21T21:50:47.743Z,97820.06
2023-04-21T21:53:50.451Z,97816.78
2023-04-21T21:56:53.504Z,97813.03
2023-04-21T21:59:56.478Z,97827.63
2023-04-21T22:02:59.475Z,97814.63
2023-04-21T22:06:02.299Z,97813.72
2023-04-21T22:09:05.501Z,97812.09
2023-04-21T22:12:08.412Z,97817.75
2023-04-21T22:15:11.674Z,97823.31
2023-04-21T22:18:14.466Z,97824.28
2023-04-21T22:21:17.204Z,97813.25
2023-04-21T22:24:19.921Z,97818.06
2023-04-21T22:27:22.608Z,97814.31
2023-04-21T22:30:26.269Z,97822.94
2023-04-21T22:33:29.042Z,97809.91
2023-04-21T22:36:32.999Z,97822.81
2023-04-21T22:39:37.681Z,97810.88
2023-04-21T22:42:40.780Z,97829.47
2023-04-21T22:45:43.512Z,97823.31
2023-04-21T22:48:46.803Z,97819.81
2023-04-21T22:51:50.677Z,97818.66
2023-04-21T22:54:53.822Z,97825.66
2023-04-21T22:57:56.677Z,97824.16
2023-04-21T23:00:59.536Z,97823.63
2023-04-21T23:04:02.361Z,97821.75
2023-04-21T23:07:05.705Z,97831.78
2023-04-21T23:10:08.531Z,97830.59
2023-04-21T23:13:11.438Z,97834.41
2023-04-21T23:16:14.183Z,97835.94
2023-04-21T23:19:16.995Z,97832.78
2023-04-21T23:22:19.698Z,97834.47
2023-04-21T23:25:22.365Z,97841.19
2023-04-21T23:28:25.429Z,97839.59
2023-04-21T23:31:28.266Z,97839.66
2023-04-21T23:34:30.968Z,97836.44
2023-04-21T23:37:33.809Z,97830.50
2023-04-21T23:40:39.126Z,97824.78
2023-04-21T23:43:41.858Z,97822.16
2023-04-21T23:46:44.591Z,97828.16
2023-04-21T23:49:47.300Z,97822.78
2023-04-21T23:52:50.116Z,97820.56
2023-04-21T23:55:53.182Z,97826.94
2023-04-21T23:58:55.966Z,97832.19
